sensor_id;sensor_type;location;lat;lon;timestamp;P1;durP1;ratioP1;P2;durP2;ratioP2
52208;SDS011;38507;53.132;6.394;2023-05-20T00:00:03;11.30;;;4.65;;
52208;SDS011;38507;53.132;6.394;2023-05-20T00:02:30;13.63;;;4.75;;
52208;SDS011;38507;53.132;6.394;2023-05-20T00:04:56;11.95;;;4.20;;
52208;SDS011;38507;53.132;6.394;2023-05-20T00:07:21;14.52;;;4.72;;
52208;SDS011;38507;53.132;6.394;2023-05-20T00:09:47;11.70;;;4.55;;
52208;SDS011;38507;53.132;6.394;2023-05-20T00:12:13;14.15;;;5.03;;
52208;SDS011;38507;53.132;6.394;2023-05-20T00:14:38;18.13;;;5.18;;
52208;SDS011;38507;53.132;6.394;2023-05-20T00:17:04;14.32;;;4.40;;
52208;SDS011;38507;53.132;6.394;2023-05-20T00:19:29;12.85;;;4.60;;
52208;SDS011;38507;53.132;6.394;2023-05-20T00:21:56;13.65;;;4.72;;
52208;SDS011;38507;53.132;6.394;2023-05-20T00:24:23;17.50;;;4.93;;
52208;SDS011;38507;53.132;6.394;2023-05-20T00:26:49;12.43;;;4.45;;
52208;SDS011;38507;53.132;6.394;2023-05-20T00:29:14;13.00;;;4.53;;
52208;SDS011;38507;53.132;6.394;2023-05-20T00:31:40;12.70;;;5.05;;
52208;SDS011;38507;53.132;6.394;2023-05-20T00:34:06;14.80;;;4.50;;
52208;SDS011;38507;53.132;6.394;2023-05-20T00:36:32;13.30;;;4.15;;
52208;SDS011;38507;53.132;6.394;2023-05-20T00:38:58;17.65;;;4.90;;
52208;SDS011;38507;53.132;6.394;2023-05-20T00:41:24;15.90;;;4.88;;
52208;SDS011;38507;53.132;6.394;2023-05-20T00:43:53;14.20;;;4.68;;
52208;SDS011;38507;53.132;6.394;2023-05-20T00:46:19;14.35;;;4.65;;
52208;SDS011;38507;53.132;6.394;2023-05-20T00:48:45;10.95;;;4.55;;
52208;SDS011;38507;53.132;6.394;2023-05-20T00:51:12;10.13;;;4.07;;
52208;SDS011;38507;53.132;6.394;2023-05-20T00:53:38;15.95;;;4.82;;
52208;SDS011;38507;53.132;6.394;2023-05-20T00:56:05;13.60;;;4.78;;
52208;SDS011;38507;53.132;6.394;2023-05-20T00:58:32;14.20;;;4.88;;
52208;SDS011;38507;53.132;6.394;2023-05-20T01:01:00;12.75;;;4.72;;
52208;SDS011;38507;53.132;6.394;2023-05-20T01:03:27;15.02;;;4.95;;
52208;SDS011;38507;53.132;6.394;2023-05-20T01:05:53;14.15;;;4.93;;
52208;SDS011;38507;53.132;6.394;2023-05-20T01:08:19;14.77;;;5.18;;
52208;SDS011;38507;53.132;6.394;2023-05-20T01:10:50;15.52;;;4.75;;
52208;SDS011;38507;53.132;6.394;2023-05-20T01:13:23;12.25;;;4.78;;
52208;SDS011;38507;53.132;6.394;2023-05-20T01:15:53;11.90;;;3.92;;
52208;SDS011;38507;53.132;6.394;2023-05-20T01:18:20;13.38;;;4.78;;
52208;SDS011;38507;53.132;6.394;2023-05-20T01:20:50;14.88;;;4.95;;
52208;SDS011;38507;53.132;6.394;2023-05-20T01:23:19;13.63;;;5.30;;
52208;SDS011;38507;53.132;6.394;2023-05-20T01:25:45;12.35;;;4.63;;
52208;SDS011;38507;53.132;6.394;2023-05-20T01:28:11;17.63;;;4.85;;
52208;SDS011;38507;53.132;6.394;2023-05-20T01:30:43;13.70;;;4.70;;
52208;SDS011;38507;53.132;6.394;2023-05-20T01:33:14;11.35;;;4.43;;
52208;SDS011;38507;53.132;6.394;2023-05-20T01:35:41;18.67;;;5.28;;
52208;SDS011;38507;53.132;6.394;2023-05-20T01:38:07;13.18;;;4.68;;
52208;SDS011;38507;53.132;6.394;2023-05-20T01:40:33;11.80;;;4.07;;
52208;SDS011;38507;53.132;6.394;2023-05-20T01:43:00;13.30;;;4.47;;
52208;SDS011;38507;53.132;6.394;2023-05-20T01:45:27;10.65;;;4.20;;
52208;SDS011;38507;53.132;6.394;2023-05-20T01:47:53;11.93;;;4.18;;
52208;SDS011;38507;53.132;6.394;2023-05-20T01:50:18;12.07;;;4.65;;
52208;SDS011;38507;53.132;6.394;2023-05-20T01:52:44;15.38;;;5.05;;
52208;SDS011;38507;53.132;6.394;2023-05-20T01:55:10;13.45;;;4.53;;
52208;SDS011;38507;53.132;6.394;2023-05-20T01:57:35;11.23;;;4.20;;
52208;SDS011;38507;53.132;6.394;2023-05-20T02:00:01;12.02;;;4.80;;
52208;SDS011;38507;53.132;6.394;2023-05-20T02:02:27;12.98;;;4.63;;
52208;SDS011;38507;53.132;6.394;2023-05-20T02:04:53;15.85;;;4.55;;
52208;SDS011;38507;53.132;6.394;2023-05-20T02:07:19;12.02;;;4.43;;
52208;SDS011;38507;53.132;6.394;2023-05-20T02:09:45;10.07;;;4.22;;
52208;SDS011;38507;53.132;6.394;2023-05-20T02:12:11;11.77;;;4.57;;
52208;SDS011;38507;53.132;6.394;2023-05-20T02:14:41;9.93;;;4.50;;
52208;SDS011;38507;53.132;6.394;2023-05-20T02:17:11;14.48;;;6.00;;
52208;SDS011;38507;53.132;6.394;2023-05-20T02:19:40;13.75;;;5.15;;
52208;SDS011;38507;53.132;6.394;2023-05-20T02:22:06;14.13;;;4.57;;
52208;SDS011;38507;53.132;6.394;2023-05-20T02:24:31;12.15;;;5.13;;
52208;SDS011;38507;53.132;6.394;2023-05-20T02:26:57;9.63;;;4.72;;
52208;SDS011;38507;53.132;6.394;2023-05-20T02:29:23;11.25;;;4.18;;
52208;SDS011;38507;53.132;6.394;2023-05-20T02:31:50;16.05;;;5.10;;
52208;SDS011;38507;53.132;6.394;2023-05-20T02:34:19;10.20;;;5.32;;
52208;SDS011;38507;53.132;6.394;2023-05-20T02:36:45;10.18;;;4.53;;
52208;SDS011;38507;53.132;6.394;2023-05-20T02:39:10;14.82;;;5.05;;
52208;SDS011;38507;53.132;6.394;2023-05-20T02:41:36;13.63;;;4.93;;
52208;SDS011;38507;53.132;6.394;2023-05-20T02:44:02;17.00;;;4.47;;
52208;SDS011;38507;53.132;6.394;2023-05-20T02:46:28;9.70;;;4.75;;
52208;SDS011;38507;53.132;6.394;2023-05-20T02:48:53;12.77;;;4.38;;
52208;SDS011;38507;53.132;6.394;2023-05-20T02:51:19;9.05;;;4.32;;
52208;SDS011;38507;53.132;6.394;2023-05-20T02:53:45;12.02;;;5.13;;
52208;SDS011;38507;53.132;6.394;2023-05-20T02:56:12;13.88;;;4.63;;
52208;SDS011;38507;53.132;6.394;2023-05-20T02:58:37;9.73;;;4.57;;
52208;SDS011;38507;53.132;6.394;2023-05-20T03:01:03;12.02;;;5.07;;
52208;SDS011;38507;53.132;6.394;2023-05-20T03:03:29;10.25;;;4.32;;
52208;SDS011;38507;53.132;6.394;2023-05-20T03:05:55;14.27;;;4.57;;
52208;SDS011;38507;53.132;6.394;2023-05-20T03:08:21;11.90;;;5.20;;
52208;SDS011;38507;53.132;6.394;2023-05-20T03:10:47;10.50;;;4.82;;
52208;SDS011;38507;53.132;6.394;2023-05-20T03:13:13;10.18;;;4.22;;
52208;SDS011;38507;53.132;6.394;2023-05-20T03:15:42;5.57;;;4.07;;
52208;SDS011;38507;53.132;6.394;2023-05-20T03:18:09;10.52;;;4.45;;
52208;SDS011;38507;53.132;6.394;2023-05-20T03:20:36;12.52;;;4.28;;
52208;SDS011;38507;53.132;6.394;2023-05-20T03:23:02;9.18;;;4.85;;
52208;SDS011;38507;53.132;6.394;2023-05-20T03:25:29;9.32;;;4.28;;
52208;SDS011;38507;53.132;6.394;2023-05-20T03:27:55;12.40;;;4.50;;
52208;SDS011;38507;53.132;6.394;2023-05-20T03:30:22;10.30;;;4.53;;
52208;SDS011;38507;53.132;6.394;2023-05-20T03:32:48;10.93;;;4.53;;
52208;SDS011;38507;53.132;6.394;2023-05-20T03:35:14;8.52;;;4.07;;
52208;SDS011;38507;53.132;6.394;2023-05-20T03:37:39;13.18;;;4.38;;
52208;SDS011;38507;53.132;6.394;2023-05-20T03:40:05;8.98;;;4.18;;
52208;SDS011;38507;53.132;6.394;2023-05-20T03:42:34;9.80;;;4.22;;
52208;SDS011;38507;53.132;6.394;2023-05-20T03:45:00;11.85;;;4.13;;
52208;SDS011;38507;53.132;6.394;2023-05-20T03:47:26;11.18;;;4.30;;
52208;SDS011;38507;53.132;6.394;2023-05-20T03:49:52;9.43;;;4.13;;
52208;SDS011;38507;53.132;6.394;2023-05-20T03:52:18;10.30;;;4.40;;
52208;SDS011;38507;53.132;6.394;2023-05-20T03:54:44;8.00;;;3.67;;
52208;SDS011;38507;53.132;6.394;2023-05-20T03:57:09;9.05;;;3.83;;
52208;SDS011;38507;53.132;6.394;2023-05-20T03:59:35;9.35;;;3.97;;
52208;SDS011;38507;53.132;6.394;2023-05-20T04:02:01;8.50;;;3.90;;
52208;SDS011;38507;53.132;6.394;2023-05-20T04:04:28;12.10;;;4.00;;
52208;SDS011;38507;53.132;6.394;2023-05-20T04:06:54;7.45;;;3.22;;
52208;SDS011;38507;53.132;6.394;2023-05-20T04:09:20;8.82;;;4.15;;
52208;SDS011;38507;53.132;6.394;2023-05-20T04:11:46;9.07;;;3.80;;
52208;SDS011;38507;53.132;6.394;2023-05-20T04:14:12;8.98;;;3.60;;
52208;SDS011;38507;53.132;6.394;2023-05-20T04:16:39;11.20;;;3.53;;
52208;SDS011;38507;53.132;6.394;2023-05-20T04:19:05;8.40;;;3.90;;
52208;SDS011;38507;53.132;6.394;2023-05-20T04:21:31;7.60;;;3.30;;
52208;SDS011;38507;53.132;6.394;2023-05-20T04:23:57;10.93;;;3.53;;
52208;SDS011;38507;53.132;6.394;2023-05-20T04:26:22;7.47;;;2.97;;
52208;SDS011;38507;53.132;6.394;2023-05-20T04:28:48;9.32;;;3.35;;
52208;SDS011;38507;53.132;6.394;2023-05-20T04:31:14;10.77;;;3.35;;
52208;SDS011;38507;53.132;6.394;2023-05-20T04:33:40;8.25;;;3.10;;
52208;SDS011;38507;53.132;6.394;2023-05-20T04:36:06;8.02;;;3.28;;
52208;SDS011;38507;53.132;6.394;2023-05-20T04:38:34;8.90;;;2.47;;
52208;SDS011;38507;53.132;6.394;2023-05-20T04:41:00;10.90;;;2.95;;
52208;SDS011;38507;53.132;6.394;2023-05-20T04:43:26;6.75;;;2.75;;
52208;SDS011;38507;53.132;6.394;2023-05-20T04:45:55;7.10;;;2.65;;
52208;SDS011;38507;53.132;6.394;2023-05-20T04:48:21;8.55;;;3.17;;
52208;SDS011;38507;53.132;6.394;2023-05-20T04:50:48;6.25;;;3.00;;
52208;SDS011;38507;53.132;6.394;2023-05-20T04:53:14;7.05;;;2.40;;
52208;SDS011;38507;53.132;6.394;2023-05-20T04:55:40;6.32;;;3.10;;
52208;SDS011;38507;53.132;6.394;2023-05-20T04:58:07;8.00;;;2.70;;
52208;SDS011;38507;53.132;6.394;2023-05-20T05:00:39;6.72;;;2.40;;
52208;SDS011;38507;53.132;6.394;2023-05-20T05:03:07;7.45;;;2.70;;
52208;SDS011;38507;53.132;6.394;2023-05-20T05:05:36;5.43;;;2.42;;
52208;SDS011;38507;53.132;6.394;2023-05-20T05:08:03;4.35;;;2.00;;
52208;SDS011;38507;53.132;6.394;2023-05-20T05:10:30;6.30;;;2.08;;
52208;SDS011;38507;53.132;6.394;2023-05-20T05:12:55;3.58;;;1.90;;
52208;SDS011;38507;53.132;6.394;2023-05-20T05:15:21;7.00;;;2.13;;
52208;SDS011;38507;53.132;6.394;2023-05-20T05:17:47;5.57;;;1.95;;
52208;SDS011;38507;53.132;6.394;2023-05-20T05:20:13;4.95;;;2.15;;
52208;SDS011;38507;53.132;6.394;2023-05-20T05:22:39;8.13;;;2.03;;
52208;SDS011;38507;53.132;6.394;2023-05-20T05:25:08;6.95;;;1.92;;
52208;SDS011;38507;53.132;6.394;2023-05-20T05:27:37;6.05;;;2.00;;
52208;SDS011;38507;53.132;6.394;2023-05-20T05:30:04;8.40;;;2.00;;
52208;SDS011;38507;53.132;6.394;2023-05-20T05:32:31;4.32;;;1.70;;
52208;SDS011;38507;53.132;6.394;2023-05-20T05:34:57;7.55;;;2.15;;
52208;SDS011;38507;53.132;6.394;2023-05-20T05:37:23;3.83;;;1.52;;
52208;SDS011;38507;53.132;6.394;2023-05-20T05:39:48;3.03;;;1.58;;
52208;SDS011;38507;53.132;6.394;2023-05-20T05:42:14;6.95;;;2.65;;
52208;SDS011;38507;53.132;6.394;2023-05-20T05:44:40;6.25;;;1.88;;
52208;SDS011;38507;53.132;6.394;2023-05-20T05:47:06;6.63;;;1.80;;
52208;SDS011;38507;53.132;6.394;2023-05-20T05:49:32;3.17;;;1.48;;
52208;SDS011;38507;53.132;6.394;2023-05-20T05:51:58;6.22;;;1.27;;
52208;SDS011;38507;53.132;6.394;2023-05-20T05:54:23;7.28;;;1.50;;
52208;SDS011;38507;53.132;6.394;2023-05-20T05:56:52;5.38;;;1.70;;
52208;SDS011;38507;53.132;6.394;2023-05-20T05:59:18;6.03;;;1.75;;
52208;SDS011;38507;53.132;6.394;2023-05-20T06:01:44;3.67;;;1.42;;
52208;SDS011;38507;53.132;6.394;2023-05-20T06:04:10;6.47;;;1.30;;
52208;SDS011;38507;53.132;6.394;2023-05-20T06:06:36;3.97;;;1.45;;
52208;SDS011;38507;53.132;6.394;2023-05-20T06:09:02;6.80;;;1.35;;
52208;SDS011;38507;53.132;6.394;2023-05-20T06:11:28;4.53;;;1.35;;
52208;SDS011;38507;53.132;6.394;2023-05-20T06:13:53;4.85;;;1.50;;
52208;SDS011;38507;53.132;6.394;2023-05-20T06:16:19;4.30;;;1.20;;
52208;SDS011;38507;53.132;6.394;2023-05-20T06:18:45;5.00;;;1.27;;
52208;SDS011;38507;53.132;6.394;2023-05-20T06:21:14;4.43;;;1.50;;
52208;SDS011;38507;53.132;6.394;2023-05-20T06:23:39;6.07;;;1.40;;
52208;SDS011;38507;53.132;6.394;2023-05-20T06:26:05;5.22;;;1.40;;
52208;SDS011;38507;53.132;6.394;2023-05-20T06:28:30;4.53;;;1.42;;
52208;SDS011;38507;53.132;6.394;2023-05-20T06:30:56;6.13;;;1.50;;
52208;SDS011;38507;53.132;6.394;2023-05-20T06:33:22;5.07;;;1.20;;
52208;SDS011;38507;53.132;6.394;2023-05-20T06:35:51;4.63;;;1.40;;
52208;SDS011;38507;53.132;6.394;2023-05-20T06:38:18;2.80;;;1.00;;
52208;SDS011;38507;53.132;6.394;2023-05-20T06:40:43;4.80;;;1.20;;
52208;SDS011;38507;53.132;6.394;2023-05-20T06:43:09;2.78;;;1.27;;
52208;SDS011;38507;53.132;6.394;2023-05-20T06:45:34;3.17;;;1.20;;
52208;SDS011;38507;53.132;6.394;2023-05-20T06:48:00;3.92;;;1.10;;
52208;SDS011;38507;53.132;6.394;2023-05-20T06:50:26;4.53;;;1.30;;
52208;SDS011;38507;53.132;6.394;2023-05-20T06:52:52;2.80;;;1.27;;
52208;SDS011;38507;53.132;6.394;2023-05-20T06:55:18;2.50;;;1.15;;
52208;SDS011;38507;53.132;6.394;2023-05-20T06:57:44;6.72;;;1.23;;
52208;SDS011;38507;53.132;6.394;2023-05-20T07:00:09;3.40;;;1.30;;
52208;SDS011;38507;53.132;6.394;2023-05-20T07:02:37;6.03;;;1.30;;
52208;SDS011;38507;53.132;6.394;2023-05-20T07:05:03;2.95;;;1.20;;
52208;SDS011;38507;53.132;6.394;2023-05-20T07:07:29;3.08;;;1.27;;
52208;SDS011;38507;53.132;6.394;2023-05-20T07:09:56;3.78;;;1.23;;
52208;SDS011;38507;53.132;6.394;2023-05-20T07:12:21;5.78;;;1.02;;
52208;SDS011;38507;53.132;6.394;2023-05-20T07:14:47;4.32;;;1.15;;
52208;SDS011;38507;53.132;6.394;2023-05-20T07:17:13;5.38;;;1.40;;
52208;SDS011;38507;53.132;6.394;2023-05-20T07:19:38;5.95;;;1.15;;
52208;SDS011;38507;53.132;6.394;2023-05-20T07:22:04;5.50;;;1.48;;
52208;SDS011;38507;53.132;6.394;2023-05-20T07:24:30;4.20;;;1.17;;
52208;SDS011;38507;53.132;6.394;2023-05-20T07:26:56;1.88;;;0.90;;
52208;SDS011;38507;53.132;6.394;2023-05-20T07:29:21;5.15;;;1.27;;
52208;SDS011;38507;53.132;6.394;2023-05-20T07:31:47;3.28;;;1.30;;
52208;SDS011;38507;53.132;6.394;2023-05-20T07:34:13;3.35;;;1.10;;
52208;SDS011;38507;53.132;6.394;2023-05-20T07:36:38;2.13;;;0.90;;
52208;SDS011;38507;53.132;6.394;2023-05-20T07:39:04;5.03;;;0.93;;
52208;SDS011;38507;53.132;6.394;2023-05-20T07:41:29;6.70;;;1.20;;
52208;SDS011;38507;53.132;6.394;2023-05-20T07:43:55;3.40;;;1.00;;
52208;SDS011;38507;53.132;6.394;2023-05-20T07:46:21;4.25;;;1.10;;
52208;SDS011;38507;53.132;6.394;2023-05-20T07:48:46;3.67;;;1.30;;
52208;SDS011;38507;53.132;6.394;2023-05-20T07:51:12;5.18;;;1.27;;
52208;SDS011;38507;53.132;6.394;2023-05-20T07:53:38;5.60;;;1.17;;
52208;SDS011;38507;53.132;6.394;2023-05-20T07:56:03;1.75;;;0.98;;
52208;SDS011;38507;53.132;6.394;2023-05-20T07:58:30;2.78;;;0.90;;
52208;SDS011;38507;53.132;6.394;2023-05-20T08:00:56;3.28;;;1.00;;
52208;SDS011;38507;53.132;6.394;2023-05-20T08:03:22;3.65;;;1.17;;
52208;SDS011;38507;53.132;6.394;2023-05-20T08:05:48;3.53;;;1.10;;
52208;SDS011;38507;53.132;6.394;2023-05-20T08:08:13;4.53;;;1.05;;
52208;SDS011;38507;53.132;6.394;2023-05-20T08:10:40;6.10;;;1.17;;
52208;SDS011;38507;53.132;6.394;2023-05-20T08:13:06;6.07;;;1.10;;
52208;SDS011;38507;53.132;6.394;2023-05-20T08:15:31;2.67;;;1.10;;
52208;SDS011;38507;53.132;6.394;2023-05-20T08:17:57;4.43;;;1.20;;
52208;SDS011;38507;53.132;6.394;2023-05-20T08:20:22;2.67;;;1.27;;
52208;SDS011;38507;53.132;6.394;2023-05-20T08:22:50;6.35;;;1.10;;
52208;SDS011;38507;53.132;6.394;2023-05-20T08:25:16;5.03;;;1.13;;
52208;SDS011;38507;53.132;6.394;2023-05-20T08:27:42;11.80;;;1.42;;
52208;SDS011;38507;53.132;6.394;2023-05-20T08:30:09;4.57;;;1.30;;
52208;SDS011;38507;53.132;6.394;2023-05-20T08:32:35;6.95;;;1.35;;
52208;SDS011;38507;53.132;6.394;2023-05-20T08:35:01;3.63;;;1.27;;
52208;SDS011;38507;53.132;6.394;2023-05-20T08:37:28;3.38;;;1.15;;
52208;SDS011;38507;53.132;6.394;2023-05-20T08:39:54;7.03;;;1.58;;
52208;SDS011;38507;53.132;6.394;2023-05-20T08:42:23;5.28;;;1.13;;
52208;SDS011;38507;53.132;6.394;2023-05-20T08:44:50;7.70;;;1.25;;
52208;SDS011;38507;53.132;6.394;2023-05-20T08:47:18;2.67;;;1.23;;
52208;SDS011;38507;53.132;6.394;2023-05-20T08:49:46;5.20;;;1.20;;
52208;SDS011;38507;53.132;6.394;2023-05-20T08:52:13;2.72;;;1.08;;
52208;SDS011;38507;53.132;6.394;2023-05-20T08:54:44;5.13;;;1.73;;
52208;SDS011;38507;53.132;6.394;2023-05-20T08:57:12;5.05;;;1.27;;
52208;SDS011;38507;53.132;6.394;2023-05-20T08:59:41;5.25;;;1.48;;
52208;SDS011;38507;53.132;6.394;2023-05-20T09:02:08;4.28;;;1.48;;
52208;SDS011;38507;53.132;6.394;2023-05-20T09:04:35;3.28;;;1.50;;
52208;SDS011;38507;53.132;6.394;2023-05-20T09:07:01;4.60;;;1.30;;
52208;SDS011;38507;53.132;6.394;2023-05-20T09:09:28;6.53;;;1.35;;
52208;SDS011;38507;53.132;6.394;2023-05-20T09:11:54;4.55;;;1.30;;
52208;SDS011;38507;53.132;6.394;2023-05-20T09:14:19;5.13;;;1.23;;
52208;SDS011;38507;53.132;6.394;2023-05-20T09:16:46;3.13;;;1.45;;
52208;SDS011;38507;53.132;6.394;2023-05-20T09:19:13;4.03;;;1.48;;
52208;SDS011;38507;53.132;6.394;2023-05-20T09:21:39;3.88;;;1.35;;
52208;SDS011;38507;53.132;6.394;2023-05-20T09:24:05;6.35;;;1.50;;
52208;SDS011;38507;53.132;6.394;2023-05-20T09:26:31;3.70;;;1.17;;
52208;SDS011;38507;53.132;6.394;2023-05-20T09:28:57;4.90;;;1.60;;
52208;SDS011;38507;53.132;6.394;2023-05-20T09:31:30;2.50;;;1.05;;
52208;SDS011;38507;53.132;6.394;2023-05-20T09:33:58;4.68;;;1.40;;
52208;SDS011;38507;53.132;6.394;2023-05-20T09:36:25;4.90;;;1.48;;
52208;SDS011;38507;53.132;6.394;2023-05-20T09:38:53;6.32;;;1.55;;
52208;SDS011;38507;53.132;6.394;2023-05-20T09:41:23;3.47;;;1.38;;
52208;SDS011;38507;53.132;6.394;2023-05-20T09:43:56;3.35;;;1.40;;
52208;SDS011;38507;53.132;6.394;2023-05-20T09:46:22;5.90;;;1.40;;
52208;SDS011;38507;53.132;6.394;2023-05-20T09:48:49;5.18;;;1.40;;
52208;SDS011;38507;53.132;6.394;2023-05-20T09:51:15;6.43;;;1.35;;
52208;SDS011;38507;53.132;6.394;2023-05-20T09:53:42;3.13;;;1.33;;
52208;SDS011;38507;53.132;6.394;2023-05-20T09:56:07;3.30;;;1.40;;
52208;SDS011;38507;53.132;6.394;2023-05-20T09:58:34;9.43;;;1.60;;
52208;SDS011;38507;53.132;6.394;2023-05-20T10:01:00;6.25;;;1.73;;
52208;SDS011;38507;53.132;6.394;2023-05-20T10:03:26;12.02;;;1.70;;
52208;SDS011;38507;53.132;6.394;2023-05-20T10:06:01;3.78;;;1.50;;
52208;SDS011;38507;53.132;6.394;2023-05-20T10:08:36;3.75;;;1.48;;
52208;SDS011;38507;53.132;6.394;2023-05-20T10:17:09;7.97;;;1.80;;
52208;SDS011;38507;53.132;6.394;2023-05-20T10:19:35;3.53;;;1.40;;
52208;SDS011;38507;53.132;6.394;2023-05-20T10:22:01;5.20;;;1.42;;
52208;SDS011;38507;53.132;6.394;2023-05-20T10:24:29;3.67;;;1.42;;
52208;SDS011;38507;53.132;6.394;2023-05-20T10:26:56;6.75;;;1.60;;
52208;SDS011;38507;53.132;6.394;2023-05-20T10:29:22;6.10;;;1.38;;
52208;SDS011;38507;53.132;6.394;2023-05-20T10:31:49;3.67;;;1.48;;
52208;SDS011;38507;53.132;6.394;2023-05-20T10:34:16;5.25;;;1.45;;
52208;SDS011;38507;53.132;6.394;2023-05-20T10:36:55;7.20;;;1.50;;
52208;SDS011;38507;53.132;6.394;2023-05-20T10:39:26;6.35;;;1.67;;
52208;SDS011;38507;53.132;6.394;2023-05-20T10:42:04;6.05;;;1.65;;
52208;SDS011;38507;53.132;6.394;2023-05-20T10:44:42;3.88;;;1.50;;
52208;SDS011;38507;53.132;6.394;2023-05-20T10:47:12;4.93;;;1.58;;
52208;SDS011;38507;53.132;6.394;2023-05-20T10:49:39;3.15;;;1.50;;
52208;SDS011;38507;53.132;6.394;2023-05-20T10:52:10;4.30;;;1.30;;
52208;SDS011;38507;53.132;6.394;2023-05-20T10:54:36;5.78;;;1.33;;
52208;SDS011;38507;53.132;6.394;2023-05-20T10:57:07;5.18;;;1.38;;
52208;SDS011;38507;53.132;6.394;2023-05-20T10:59:35;3.92;;;1.30;;
52208;SDS011;38507;53.132;6.394;2023-05-20T11:02:01;5.47;;;1.60;;
52208;SDS011;38507;53.132;6.394;2023-05-20T11:04:28;5.63;;;1.73;;
52208;SDS011;38507;53.132;6.394;2023-05-20T11:06:55;8.80;;;1.38;;
52208;SDS011;38507;53.132;6.394;2023-05-20T11:09:22;5.95;;;1.65;;
52208;SDS011;38507;53.132;6.394;2023-05-20T11:11:51;1.70;;;1.00;;
52208;SDS011;38507;53.132;6.394;2023-05-20T11:14:18;6.22;;;1.52;;
52208;SDS011;38507;53.132;6.394;2023-05-20T11:16:44;4.95;;;1.48;;
52208;SDS011;38507;53.132;6.394;2023-05-20T11:19:13;3.67;;;1.20;;
52208;SDS011;38507;53.132;6.394;2023-05-20T11:21:46;4.03;;;1.67;;
52208;SDS011;38507;53.132;6.394;2023-05-20T11:24:12;2.70;;;1.10;;
52208;SDS011;38507;53.132;6.394;2023-05-20T11:26:39;5.50;;;1.85;;
52208;SDS011;38507;53.132;6.394;2023-05-20T11:29:05;6.35;;;1.98;;
52208;SDS011;38507;53.132;6.394;2023-05-20T11:31:31;7.28;;;2.17;;
52208;SDS011;38507;53.132;6.394;2023-05-20T11:34:00;5.95;;;1.50;;
52208;SDS011;38507;53.132;6.394;2023-05-20T11:36:26;5.95;;;2.00;;
52208;SDS011;38507;53.132;6.394;2023-05-20T11:38:53;5.88;;;1.70;;
52208;SDS011;38507;53.132;6.394;2023-05-20T11:41:23;5.35;;;1.73;;
52208;SDS011;38507;53.132;6.394;2023-05-20T11:43:56;3.78;;;1.60;;
52208;SDS011;38507;53.132;6.394;2023-05-20T11:46:25;5.25;;;1.83;;
52208;SDS011;38507;53.132;6.394;2023-05-20T11:48:54;7.28;;;1.77;;
52208;SDS011;38507;53.132;6.394;2023-05-20T11:51:27;4.80;;;1.70;;
52208;SDS011;38507;53.132;6.394;2023-05-20T11:54:03;7.00;;;1.88;;
52208;SDS011;38507;53.132;6.394;2023-05-20T11:56:30;5.47;;;1.65;;
52208;SDS011;38507;53.132;6.394;2023-05-20T11:59:00;3.72;;;1.48;;
52208;SDS011;38507;53.132;6.394;2023-05-20T12:01:28;5.18;;;1.40;;
52208;SDS011;38507;53.132;6.394;2023-05-20T12:03:55;10.43;;;2.00;;
52208;SDS011;38507;53.132;6.394;2023-05-20T12:06:20;7.00;;;2.17;;
52208;SDS011;38507;53.132;6.394;2023-05-20T12:08:46;7.72;;;1.70;;
52208;SDS011;38507;53.132;6.394;2023-05-20T12:11:12;4.07;;;1.70;;
52208;SDS011;38507;53.132;6.394;2023-05-20T12:13:38;4.05;;;1.65;;
52208;SDS011;38507;53.132;6.394;2023-05-20T12:16:05;4.53;;;1.83;;
52208;SDS011;38507;53.132;6.394;2023-05-20T12:18:31;8.48;;;2.17;;
52208;SDS011;38507;53.132;6.394;2023-05-20T12:20:57;7.70;;;2.08;;
52208;SDS011;38507;53.132;6.394;2023-05-20T12:23:23;4.43;;;1.83;;
52208;SDS011;38507;53.132;6.394;2023-05-20T12:25:49;6.30;;;1.80;;
52208;SDS011;38507;53.132;6.394;2023-05-20T12:28:15;5.93;;;1.88;;
52208;SDS011;38507;53.132;6.394;2023-05-20T12:30:43;5.60;;;2.10;;
52208;SDS011;38507;53.132;6.394;2023-05-20T12:33:09;8.50;;;1.95;;
52208;SDS011;38507;53.132;6.394;2023-05-20T12:35:38;6.20;;;1.70;;
52208;SDS011;38507;53.132;6.394;2023-05-20T12:38:06;5.97;;;2.08;;
52208;SDS011;38507;53.132;6.394;2023-05-20T12:40:32;5.53;;;2.17;;
52208;SDS011;38507;53.132;6.394;2023-05-20T12:42:59;8.05;;;1.90;;
52208;SDS011;38507;53.132;6.394;2023-05-20T12:45:26;6.63;;;2.28;;
52208;SDS011;38507;53.132;6.394;2023-05-20T12:47:52;5.85;;;1.98;;
52208;SDS011;38507;53.132;6.394;2023-05-20T12:50:19;6.13;;;2.10;;
52208;SDS011;38507;53.132;6.394;2023-05-20T12:52:44;5.75;;;1.88;;
52208;SDS011;38507;53.132;6.394;2023-05-20T12:55:11;6.05;;;2.10;;
52208;SDS011;38507;53.132;6.394;2023-05-20T12:57:40;4.65;;;1.80;;
52208;SDS011;38507;53.132;6.394;2023-05-20T13:00:09;4.97;;;2.13;;
52208;SDS011;38507;53.132;6.394;2023-05-20T13:02:36;10.30;;;1.85;;
52208;SDS011;38507;53.132;6.394;2023-05-20T13:05:03;6.72;;;2.38;;
52208;SDS011;38507;53.132;6.394;2023-05-20T13:07:29;7.43;;;2.20;;
52208;SDS011;38507;53.132;6.394;2023-05-20T13:09:56;5.18;;;2.13;;
52208;SDS011;38507;53.132;6.394;2023-05-20T13:12:22;9.55;;;2.15;;
52208;SDS011;38507;53.132;6.394;2023-05-20T13:14:48;6.20;;;2.65;;
52208;SDS011;38507;53.132;6.394;2023-05-20T13:17:14;7.82;;;2.30;;
52208;SDS011;38507;53.132;6.394;2023-05-20T13:19:40;7.47;;;2.10;;
52208;SDS011;38507;53.132;6.394;2023-05-20T13:22:06;9.05;;;2.28;;
52208;SDS011;38507;53.132;6.394;2023-05-20T13:24:33;6.05;;;2.08;;
52208;SDS011;38507;53.132;6.394;2023-05-20T13:26:59;9.10;;;2.30;;
52208;SDS011;38507;53.132;6.394;2023-05-20T13:29:25;5.95;;;2.05;;
52208;SDS011;38507;53.132;6.394;2023-05-20T13:31:52;7.90;;;2.17;;
52208;SDS011;38507;53.132;6.394;2023-05-20T13:34:18;7.35;;;2.40;;
52208;SDS011;38507;53.132;6.394;2023-05-20T13:36:44;10.23;;;2.30;;
52208;SDS011;38507;53.132;6.394;2023-05-20T13:39:11;4.57;;;2.30;;
52208;SDS011;38507;53.132;6.394;2023-05-20T13:41:38;5.47;;;2.40;;
52208;SDS011;38507;53.132;6.394;2023-05-20T13:44:04;6.32;;;2.60;;
52208;SDS011;38507;53.132;6.394;2023-05-20T13:46:30;6.60;;;2.40;;
52208;SDS011;38507;53.132;6.394;2023-05-20T13:48:55;5.35;;;2.45;;
52208;SDS011;38507;53.132;6.394;2023-05-20T13:51:21;8.32;;;2.75;;
52208;SDS011;38507;53.132;6.394;2023-05-20T13:53:47;8.75;;;3.53;;
52208;SDS011;38507;53.132;6.394;2023-05-20T13:56:12;9.85;;;2.65;;
52208;SDS011;38507;53.132;6.394;2023-05-20T13:58:38;8.23;;;2.70;;
52208;SDS011;38507;53.132;6.394;2023-05-20T14:01:04;4.55;;;2.28;;
52208;SDS011;38507;53.132;6.394;2023-05-20T14:03:30;8.90;;;2.58;;
52208;SDS011;38507;53.132;6.394;2023-05-20T14:05:57;9.77;;;2.50;;
52208;SDS011;38507;53.132;6.394;2023-05-20T14:08:23;14.48;;;2.75;;
52208;SDS011;38507;53.132;6.394;2023-05-20T14:10:49;9.82;;;2.67;;
52208;SDS011;38507;53.132;6.394;2023-05-20T14:13:19;8.50;;;2.70;;
52208;SDS011;38507;53.132;6.394;2023-05-20T14:15:48;7.88;;;2.53;;
52208;SDS011;38507;53.132;6.394;2023-05-20T14:18:17;7.55;;;2.95;;
52208;SDS011;38507;53.132;6.394;2023-05-20T14:20:44;11.10;;;2.72;;
52208;SDS011;38507;53.132;6.394;2023-05-20T14:23:10;13.18;;;2.67;;
52208;SDS011;38507;53.132;6.394;2023-05-20T14:25:36;12.35;;;2.63;;
52208;SDS011;38507;53.132;6.394;2023-05-20T14:28:02;12.00;;;3.15;;
52208;SDS011;38507;53.132;6.394;2023-05-20T14:30:27;5.32;;;2.53;;
52208;SDS011;38507;53.132;6.394;2023-05-20T14:32:53;11.00;;;2.67;;
52208;SDS011;38507;53.132;6.394;2023-05-20T14:35:19;11.05;;;3.30;;
52208;SDS011;38507;53.132;6.394;2023-05-20T14:37:45;7.32;;;2.60;;
52208;SDS011;38507;53.132;6.394;2023-05-20T14:40:10;7.00;;;2.40;;
52208;SDS011;38507;53.132;6.394;2023-05-20T14:42:37;5.88;;;2.10;;
52208;SDS011;38507;53.132;6.394;2023-05-20T14:45:03;8.07;;;2.25;;